Abraham Lincoln Capital Airport

Airport
ICAO code: 
KSPI
Summary
ICAO Region: 
NAM
Territory: 
Location: 
Springfield, Illinois,
Coordinates: 
Aerial View: 
39° 50' 38" N, 89° 40' 40.001" W
Metar
Observation
KSPI 271052Z AUTO 17007KT 10SM CLR M01/M05 A2992 RMK AO2 SLP136 T10061050
Station
Springfield, Abraham Lincoln Capital Airport
Date/Time
2021-11-27 10:52:00
Wind direction
170°
Wind speed
07 kts
Lowest cloud amount
n/a
Temperature
-0.6°C
Dew point
-5°C
Humidity
72%
Weather condition
n/a

Description

Abraham Lincoln Capital Airport is a joint use civil and military (ANG) public airport in Sangamon County, Illinois. It is located 6 km northwest of the central business district of Springfield, the capital city of Illinois.

Climatology

Humid continental climate (Köppen climate classification Dfa) - characterized by four seasons: cold, windy, snowy winters, mild springs, hot, humid summers, and crisp and relatively short autumns. Precipitation reaches its lowest in January and February and peaks in summer and latter half of spring.

Runways

Designator Length Width Surface Rops
18/36 1615 46 PEM Yes/Yes
13/31 2134 46 ASP Yes/Yes
4/22 2438 46 CON Yes/Yes
Airport map: 
Aerial View: 

SKYbrary Partners:

Safety knowledge contributed by: